createdAt,value
2018-11-04T00:00:44.855Z,95827.94
2018-11-04T00:03:13.331Z,95820.27
2018-11-04T00:05:41.786Z,95813.15
2018-11-04T00:08:10.184Z,95818.95
2018-11-04T00:10:38.662Z,95820.25
2018-11-04T00:13:07.127Z,95805.11
2018-11-04T00:15:35.551Z,95801.80
2018-11-04T00:18:04.420Z,95805.22
2018-11-04T00:20:32.894Z,95800.61
2018-11-04T00:23:02.059Z,95792.82
2018-11-04T00:25:30.493Z,95800.50
2018-11-04T00:27:58.941Z,95798.63
2018-11-04T00:30:27.378Z,95802.05
2018-11-04T00:32:55.788Z,95793.64
2018-11-04T00:35:24.258Z,95797.91
2018-11-04T00:37:52.662Z,95784.31
2018-11-04T00:40:21.155Z,95785.86
2018-11-04T00:42:49.550Z,95790.33
2018-11-04T00:45:17.998Z,95793.39
2018-11-04T00:47:46.420Z,95785.97
2018-11-04T00:50:16.730Z,95788.79
2018-11-04T00:52:45.426Z,95789.85
2018-11-04T00:55:14.186Z,95785.02
2018-11-04T00:57:42.625Z,95780.16
2018-11-04T01:00:18.934Z,95781.13
2018-11-04T01:02:48.589Z,95777.56
2018-11-04T01:05:17.540Z,95781.83
2018-11-04T01:07:45.985Z,95772.00
2018-11-04T01:10:14.691Z,95769.66
2018-11-04T01:12:43.811Z,95763.14
2018-11-04T01:15:13.394Z,95762.89
2018-11-04T01:17:42.522Z,95759.00
2018-11-04T01:20:13.227Z,95760.66
2018-11-04T01:22:41.659Z,95761.38
2018-11-04T01:25:10.291Z,95756.39
2018-11-04T01:27:38.735Z,95753.09
2018-11-04T01:30:09.249Z,95751.69
2018-11-04T01:32:37.744Z,95752.13
2018-11-04T01:35:06.874Z,95749.88
2018-11-04T01:37:35.519Z,95748.23
2018-11-04T01:40:04.071Z,95755.83
2018-11-04T01:42:32.491Z,95744.00
2018-11-04T01:45:00.950Z,95740.79
2018-11-04T01:47:29.346Z,95734.28
2018-11-04T01:49:57.799Z,95722.92
2018-11-04T01:52:26.286Z,95720.95
2018-11-04T01:54:54.740Z,95722.01
2018-11-04T01:57:23.146Z,95718.58
2018-11-04T01:59:51.583Z,95706.51
2018-11-04T02:02:19.985Z,95706.41
2018-11-04T02:04:48.443Z,95705.80
2018-11-04T02:07:16.846Z,95704.04
2018-11-04T02:09:45.275Z,95694.94
2018-11-04T02:12:13.694Z,95689.27
2018-11-04T02:14:42.152Z,95685.73
2018-11-04T02:17:10.558Z,95683.02
2018-11-04T02:19:38.999Z,95682.89
2018-11-04T02:22:07.473Z,95678.39
2018-11-04T02:24:35.907Z,95680.86
2018-11-04T02:27:04.417Z,95682.19
2018-11-04T02:29:32.917Z,95681.48
2018-11-04T02:32:02.004Z,95686.42
2018-11-04T02:34:30.450Z,95679.22
2018-11-04T02:36:58.852Z,95682.76
2018-11-04T02:39:27.274Z,95687.84
2018-11-04T02:41:55.733Z,95682.40
2018-11-04T02:44:24.127Z,95675.53
2018-11-04T02:46:52.594Z,95676.86
2018-11-04T02:49:20.975Z,95673.89
2018-11-04T02:51:49.395Z,95675.66
2018-11-04T02:54:17.827Z,95678.16
2018-11-04T02:56:46.270Z,95667.62
2018-11-04T02:59:14.683Z,95665.16
2018-11-04T03:01:43.144Z,95677.32
2018-11-04T03:04:11.550Z,95678.39
2018-11-04T03:06:39.995Z,95674.13
2018-11-04T03:09:09.561Z,95674.95
2018-11-04T03:11:38.003Z,95673.78
2018-11-04T03:14:06.871Z,95680.41
2018-11-04T03:16:35.347Z,95677.34
2018-11-04T03:19:03.766Z,95681.50
2018-11-04T03:21:32.195Z,95674.39
2018-11-04T03:24:00.615Z,95674.05
2018-11-04T03:26:29.073Z,95671.45
2018-11-04T03:28:57.473Z,95662.95
2018-11-04T03:31:25.868Z,95658.81
2018-11-04T03:33:54.338Z,95647.11
2018-11-04T03:36:22.734Z,95663.40
2018-11-04T03:38:51.162Z,95656.55
2018-11-04T03:41:19.602Z,95642.22
2018-11-04T03:43:48.034Z,95640.45
2018-11-04T03:46:16.434Z,95641.05
2018-11-04T03:48:44.886Z,95639.14
2018-11-04T03:51:13.285Z,95636.44
2018-11-04T03:53:41.750Z,95633.48
2018-11-04T03:56:10.158Z,95637.98
2018-11-04T03:58:38.600Z,95631.81
2018-11-04T04:01:07.030Z,95637.25
2018-11-04T04:03:35.467Z,95625.20
2018-11-04T04:06:03.916Z,95630.84
2018-11-04T04:08:32.371Z,95629.21
2018-11-04T04:11:00.787Z,95628.02
2018-11-04T04:13:29.243Z,95628.14
2018-11-04T04:15:57.650Z,95629.08
2018-11-04T04:18:26.088Z,95613.70
2018-11-04T04:21:00.555Z,95613.84
2018-11-04T04:23:29.031Z,95624.02
2018-11-04T04:25:57.449Z,95615.98
2018-11-04T04:28:25.839Z,95607.34
2018-11-04T04:30:54.279Z,95600.50
2018-11-04T04:33:22.679Z,95609.81
2018-11-04T04:35:51.094Z,95603.44
2018-11-04T04:38:19.523Z,95597.77
2018-11-04T04:40:47.995Z,95601.30
2018-11-04T04:43:16.403Z,95594.70
2018-11-04T04:45:44.846Z,95595.03
2018-11-04T04:48:13.241Z,95598.60
2018-11-04T04:50:41.677Z,95586.90
2018-11-04T04:53:10.119Z,95575.06
2018-11-04T04:55:38.567Z,95576.97
2018-11-04T04:58:07.023Z,95562.43
2018-11-04T05:00:35.522Z,95566.09
2018-11-04T05:03:03.935Z,95566.05
2018-11-04T05:05:32.367Z,95568.20
2018-11-04T05:08:00.771Z,95567.02
2018-11-04T05:10:29.205Z,95560.02
2018-11-04T05:12:57.606Z,95561.08
2018-11-04T05:15:26.051Z,95566.16
2018-11-04T05:17:54.475Z,95566.05
2018-11-04T05:20:22.874Z,95573.39
2018-11-04T05:22:51.311Z,95571.13
2018-11-04T05:25:19.726Z,95582.36
2018-11-04T05:27:48.182Z,95586.40
2018-11-04T05:30:16.583Z,95579.06
2018-11-04T05:32:45.023Z,95581.42
2018-11-04T05:35:13.432Z,95579.20
2018-11-04T05:37:41.873Z,95577.80
2018-11-04T05:40:10.298Z,95579.23
2018-11-04T05:42:38.734Z,95581.63
2018-11-04T05:45:07.784Z,95575.86
2018-11-04T05:47:36.222Z,95580.67
2018-11-04T05:50:05.366Z,95577.70
2018-11-04T05:52:33.918Z,95581.27
2018-11-04T05:55:02.312Z,95569.50
2018-11-04T05:57:30.754Z,95578.46
2018-11-04T05:59:59.158Z,95575.80
2018-11-04T06:02:27.627Z,95577.80
2018-11-04T06:04:56.042Z,95579.70
2018-11-04T06:07:24.620Z,95577.53
2018-11-04T06:09:53.030Z,95572.92
2018-11-04T06:12:21.531Z,95569.12
2018-11-04T06:14:49.959Z,95573.03
2018-11-04T06:17:18.357Z,95578.97
2018-11-04T06:19:46.790Z,95564.42
2018-11-04T06:22:15.195Z,95560.76
2018-11-04T06:24:43.639Z,95565.13
2018-11-04T06:27:12.051Z,95566.42
2018-11-04T06:29:40.483Z,95573.06
2018-11-04T06:32:08.882Z,95568.42
2018-11-04T06:34:37.415Z,95576.03
2018-11-04T06:37:05.780Z,95579.70
2018-11-04T06:39:34.262Z,95586.86
2018-11-04T06:42:02.744Z,95583.93
2018-11-04T06:44:31.234Z,95581.06
2018-11-04T06:46:59.717Z,95588.16
2018-11-04T06:49:28.128Z,95573.99
2018-11-04T06:51:56.531Z,95579.56
2018-11-04T06:54:25.091Z,95587.27
2018-11-04T06:56:53.543Z,95590.29
2018-11-04T06:59:21.982Z,95586.91
2018-11-04T07:01:50.404Z,95594.09
2018-11-04T07:04:22.374Z,95584.53
2018-11-04T07:06:51.155Z,95581.09
2018-11-04T07:09:19.615Z,95586.27
2018-11-04T07:11:48.990Z,95581.34
2018-11-04T07:14:17.891Z,95580.38
2018-11-04T07:16:46.597Z,95573.91
2018-11-04T07:19:15.606Z,95574.14
2018-11-04T07:21:44.087Z,95569.52
2018-11-04T07:24:12.525Z,95576.95
2018-11-04T07:26:41.014Z,95579.89
2018-11-04T07:29:09.971Z,95573.16
2018-11-04T07:31:38.430Z,95581.03
2018-11-04T07:34:07.442Z,95596.03
2018-11-04T07:36:35.927Z,95596.37
2018-11-04T07:39:06.780Z,95583.73
2018-11-04T07:41:35.253Z,95584.91
2018-11-04T07:44:03.705Z,95584.06
2018-11-04T07:46:32.168Z,95587.23
2018-11-04T07:49:00.611Z,95599.27
2018-11-04T07:51:29.111Z,95599.77
2018-11-04T07:53:57.579Z,95595.07
2018-11-04T07:56:26.032Z,95587.06
2018-11-04T07:58:54.474Z,95590.97
2018-11-04T08:01:22.948Z,95589.44
2018-11-04T08:03:51.441Z,95582.17
2018-11-04T08:06:19.859Z,95582.90
2018-11-04T08:08:48.331Z,95578.56
2018-11-04T08:11:16.754Z,95578.23
2018-11-04T08:13:45.231Z,95580.86
2018-11-04T08:16:13.659Z,95575.16
2018-11-04T08:18:42.102Z,95565.20
2018-11-04T08:21:10.867Z,95572.97
2018-11-04T08:29:44.511Z,95575.20
2018-11-04T08:32:13.207Z,95562.39
2018-11-04T08:34:41.670Z,95555.41
2018-11-04T08:37:10.114Z,95558.11
2018-11-04T08:39:38.680Z,95557.41
2018-11-04T08:42:07.633Z,95558.72
2018-11-04T08:44:36.135Z,95569.08
2018-11-04T08:47:05.268Z,95568.75
2018-11-04T08:49:33.768Z,95558.20
2018-11-04T08:52:04.410Z,95553.22
2018-11-04T08:54:32.913Z,95555.09
2018-11-04T08:57:02.424Z,95547.05
2018-11-04T08:59:34.467Z,95552.02
2018-11-04T09:02:07.518Z,95555.09
2018-11-04T09:04:35.984Z,95555.98
2018-11-04T09:07:04.484Z,95548.78
2018-11-04T09:09:32.954Z,95540.31
2018-11-04T09:12:01.659Z,95534.29
2018-11-04T09:14:30.140Z,95528.81
2018-11-04T09:16:58.548Z,95525.23
2018-11-04T09:19:27.291Z,95530.06
2018-11-04T09:21:56.003Z,95534.05
2018-11-04T09:24:24.320Z,95533.57
2018-11-04T09:26:52.795Z,95525.70
2018-11-04T09:29:21.424Z,95530.12
2018-11-04T09:31:49.935Z,95512.16
2018-11-04T09:34:18.503Z,95503.66
2018-11-04T09:36:47.290Z,95504.34
2018-11-04T09:39:15.767Z,95512.25
2018-11-04T09:41:44.226Z,95506.59
2018-11-04T09:44:12.693Z,95510.86
2018-11-04T09:46:41.607Z,95512.08
2018-11-04T09:49:10.027Z,95520.82
2018-11-04T09:51:39.360Z,95516.55
2018-11-04T09:54:07.815Z,95515.88
2018-11-04T09:56:36.315Z,95511.87
2018-11-04T09:59:05.051Z,95509.25
2018-11-04T10:01:33.519Z,95512.08
2018-11-04T10:04:01.935Z,95512.88
2018-11-04T10:06:30.542Z,95513.06
2018-11-04T10:08:58.966Z,95500.00
2018-11-04T10:11:27.402Z,95487.14
2018-11-04T10:13:55.843Z,95497.28
2018-11-04T10:16:24.376Z,95485.06
2018-11-04T10:18:52.877Z,95478.95
2018-11-04T10:21:21.247Z,95474.28
2018-11-04T10:23:49.666Z,95469.83
2018-11-04T10:26:18.090Z,95463.39
2018-11-04T10:28:46.554Z,95464.34
2018-11-04T10:31:14.992Z,95462.53
2018-11-04T10:33:43.463Z,95450.06
2018-11-04T10:36:11.912Z,95442.58
2018-11-04T10:38:40.387Z,95446.48
2018-11-04T10:41:08.807Z,95447.93
2018-11-04T10:43:37.389Z,95442.73
2018-11-04T10:46:05.882Z,95450.31
2018-11-04T10:48:34.327Z,95444.03
2018-11-04T10:51:02.747Z,95441.78
2018-11-04T10:53:31.261Z,95437.48
2018-11-04T10:55:59.814Z,95441.17
2018-11-04T10:58:29.690Z,95439.18
2018-11-04T11:01:03.327Z,95434.87
2018-11-04T11:03:31.782Z,95434.91
2018-11-04T11:06:00.198Z,95427.80
2018-11-04T11:08:28.646Z,95420.05
2018-11-04T11:10:57.106Z,95418.36
2018-11-04T11:13:25.571Z,95421.57
2018-11-04T11:15:54.039Z,95421.10
2018-11-04T11:18:22.450Z,95413.44
2018-11-04T11:20:50.916Z,95414.45
2018-11-04T11:23:19.428Z,95418.78
2018-11-04T11:25:47.854Z,95413.36
2018-11-04T11:28:16.305Z,95411.98
2018-11-04T11:30:44.763Z,95412.39
2018-11-04T11:33:13.190Z,95405.26
2018-11-04T11:35:41.650Z,95408.44
2018-11-04T11:38:10.083Z,95408.52
2018-11-04T11:40:38.543Z,95396.53
2018-11-04T11:43:07.011Z,95396.64
2018-11-04T11:45:35.451Z,95398.56
2018-11-04T11:48:03.883Z,95385.22
2018-11-04T11:50:33.076Z,95386.44
2018-11-04T11:53:01.671Z,95378.16
2018-11-04T11:55:30.578Z,95368.63
2018-11-04T11:57:59.011Z,95369.46
2018-11-04T12:00:28.015Z,95373.77
2018-11-04T12:02:56.975Z,95369.25
2018-11-04T12:05:25.491Z,95371.49
2018-11-04T12:07:53.952Z,95366.35
2018-11-04T12:10:22.408Z,95362.59
2018-11-04T12:12:50.896Z,95358.53
2018-11-04T12:15:19.323Z,95356.08
2018-11-04T12:17:47.826Z,95355.03
2018-11-04T12:20:16.243Z,95354.63
2018-11-04T12:22:44.703Z,95358.06
2018-11-04T12:25:13.698Z,95358.42
2018-11-04T12:27:42.410Z,95349.75
2018-11-04T12:30:12.867Z,95331.92
2018-11-04T12:32:41.343Z,95334.06
2018-11-04T12:35:11.431Z,95331.81
2018-11-04T12:37:40.002Z,95331.05
2018-11-04T12:40:10.422Z,95332.76
2018-11-04T12:42:38.883Z,95332.69
2018-11-04T12:45:08.406Z,95330.70
2018-11-04T12:47:36.987Z,95325.22
2018-11-04T12:50:06.935Z,95316.94
2018-11-04T12:52:35.595Z,95308.09
2018-11-04T12:55:05.383Z,95302.74
2018-11-04T12:57:34.393Z,95307.55
2018-11-04T13:00:03.240Z,95303.42
2018-11-04T13:02:33.580Z,95288.69
2018-11-04T13:05:04.754Z,95280.47
2018-11-04T13:07:37.718Z,95279.56
2018-11-04T13:10:08.368Z,95278.91
2018-11-04T13:12:37.476Z,95283.02
2018-11-04T13:15:09.461Z,95281.25
2018-11-04T13:17:38.188Z,95275.02
2018-11-04T13:20:07.134Z,95284.48
2018-11-04T13:22:36.049Z,95275.13
2018-11-04T13:25:05.459Z,95279.19
2018-11-04T13:27:35.176Z,95275.21
2018-11-04T13:30:04.876Z,95282.15
2018-11-04T13:32:34.893Z,95284.84
2018-11-04T13:35:10.315Z,95290.43
2018-11-04T13:37:40.940Z,95274.91
2018-11-04T13:40:13.168Z,95264.91
2018-11-04T13:42:42.055Z,95251.27
2018-11-04T13:45:11.094Z,95259.08
2018-11-04T13:47:39.555Z,95268.81
2018-11-04T13:50:10.672Z,95264.34
2018-11-04T13:52:39.124Z,95256.47
2018-11-04T13:55:07.835Z,95257.03
2018-11-04T13:57:36.258Z,95260.34
2018-11-04T14:00:04.864Z,95257.99
2018-11-04T14:02:33.291Z,95258.80
2018-11-04T14:05:01.743Z,95255.48
2018-11-04T14:07:30.166Z,95246.47
2018-11-04T14:09:58.622Z,95244.11
2018-11-04T14:12:27.038Z,95243.75
2018-11-04T14:14:55.458Z,95242.66
2018-11-04T14:17:23.931Z,95242.47
2018-11-04T14:19:52.482Z,95243.03
2018-11-04T14:22:20.954Z,95241.41
2018-11-04T14:24:49.367Z,95249.28
2018-11-04T14:27:17.843Z,95246.53
2018-11-04T14:29:46.547Z,95238.86
2018-11-04T14:32:15.031Z,95244.81
2018-11-04T14:34:43.479Z,95246.00
2018-11-04T14:37:11.949Z,95239.08
2018-11-04T14:39:40.376Z,95237.35
2018-11-04T14:42:09.966Z,95234.39
2018-11-04T14:44:38.386Z,95232.30
2018-11-04T14:47:06.922Z,95227.88
2018-11-04T14:49:35.380Z,95228.71
2018-11-04T14:52:03.903Z,95220.84
2018-11-04T14:54:32.368Z,95212.14
2018-11-04T14:57:00.931Z,95203.50
2018-11-04T14:59:29.375Z,95201.22
2018-11-04T15:01:57.927Z,95204.83
2018-11-04T15:04:26.324Z,95201.33
2018-11-04T15:06:54.830Z,95198.94
2018-11-04T15:09:23.404Z,95200.11
2018-11-04T15:11:52.226Z,95200.38
2018-11-04T15:14:20.728Z,95196.20
2018-11-04T15:16:49.371Z,95197.04
2018-11-04T15:19:17.851Z,95199.34
2018-11-04T15:21:46.486Z,95189.44
2018-11-04T15:24:15.266Z,95192.98
2018-11-04T15:26:43.759Z,95194.48
2018-11-04T15:29:12.234Z,95198.54
2018-11-04T15:31:41.071Z,95191.27
2018-11-04T15:34:09.726Z,95182.77
2018-11-04T15:36:38.324Z,95185.32
2018-11-04T15:39:09.808Z,95181.53
2018-11-04T15:41:38.547Z,95184.75
2018-11-04T15:44:07.191Z,95191.77
2018-11-04T15:46:35.767Z,95191.05
2018-11-04T15:49:04.863Z,95188.69
2018-11-04T15:51:33.197Z,95186.77
2018-11-04T15:54:01.714Z,95180.38
2018-11-04T15:56:30.255Z,95182.35
2018-11-04T15:58:58.909Z,95181.41
2018-11-04T16:01:27.451Z,95176.05
2018-11-04T16:03:56.052Z,95189.07
2018-11-04T16:06:24.522Z,95190.99
2018-11-04T16:08:53.048Z,95195.88
2018-11-04T16:11:21.538Z,95188.53
2018-11-04T16:13:50.013Z,95187.38
2018-11-04T16:16:18.506Z,95189.16
2018-11-04T16:18:47.084Z,95186.97
2018-11-04T16:21:15.626Z,95184.48
2018-11-04T16:23:44.063Z,95186.41
2018-11-04T16:26:12.604Z,95182.23
2018-11-04T16:28:41.005Z,95192.08
2018-11-04T16:31:09.474Z,95190.09
2018-11-04T16:33:37.932Z,95195.59
2018-11-04T16:36:06.640Z,95196.07
2018-11-04T16:38:35.104Z,95186.34
2018-11-04T16:41:03.602Z,95192.84
2018-11-04T16:43:32.134Z,95193.47
2018-11-04T16:46:00.616Z,95190.09
2018-11-04T16:48:29.056Z,95182.91
2018-11-04T16:50:57.544Z,95189.48
2018-11-04T16:53:26.017Z,95182.03
2018-11-04T16:55:54.541Z,95187.17
2018-11-04T16:58:23.012Z,95194.91
2018-11-04T17:00:51.687Z,95198.41
2018-11-04T17:03:20.199Z,95189.30
2018-11-04T17:05:48.807Z,95189.89
2018-11-04T17:08:17.417Z,95178.68
2018-11-04T17:10:50.147Z,95172.64
2018-11-04T17:13:18.648Z,95174.01
2018-11-04T17:15:47.099Z,95160.10
2018-11-04T17:18:15.712Z,95165.11
2018-11-04T17:20:44.099Z,95164.69
2018-11-04T17:23:12.612Z,95176.87
2018-11-04T17:25:41.075Z,95166.53
2018-11-04T17:28:09.678Z,95163.05
2018-11-04T17:30:38.160Z,95155.16
2018-11-04T17:33:06.682Z,95151.47
2018-11-04T17:35:35.176Z,95150.38
2018-11-04T17:38:03.659Z,95145.52
2018-11-04T17:40:32.148Z,95147.64
2018-11-04T17:43:00.630Z,95148.59
2018-11-04T17:45:29.109Z,95148.48
2018-11-04T17:47:57.603Z,95145.39
2018-11-04T17:50:26.043Z,95146.69
2018-11-04T17:52:54.511Z,95149.70
2018-11-04T17:55:22.998Z,95149.28
2018-11-04T17:57:51.482Z,95162.50
2018-11-04T18:00:20.021Z,95161.13
2018-11-04T18:02:48.375Z,95158.52
2018-11-04T18:05:16.864Z,95164.27
2018-11-04T18:07:45.574Z,95148.61
2018-11-04T18:10:14.910Z,95164.29
2018-11-04T18:12:43.590Z,95160.80
2018-11-04T18:15:12.904Z,95163.25
2018-11-04T18:17:41.329Z,95153.80
2018-11-04T18:20:10.581Z,95158.59
2018-11-04T18:22:39.166Z,95158.94
2018-11-04T18:25:08.898Z,95156.27
2018-11-04T18:27:37.567Z,95156.61
2018-11-04T18:30:08.771Z,95157.44
2018-11-04T18:32:37.214Z,95167.09
2018-11-04T18:35:05.861Z,95171.73
2018-11-04T18:37:34.323Z,95162.38
2018-11-04T18:40:02.812Z,95161.47
2018-11-04T18:42:31.237Z,95154.71
2018-11-04T18:44:59.692Z,95143.73
2018-11-04T18:47:28.159Z,95153.13
2018-11-04T18:49:56.683Z,95142.84
2018-11-04T18:52:25.208Z,95138.61
2018-11-04T18:54:53.687Z,95140.23
2018-11-04T18:57:22.257Z,95146.55
2018-11-04T18:59:50.803Z,95141.55
2018-11-04T19:02:19.327Z,95142.09
2018-11-04T19:04:47.903Z,95147.70
2018-11-04T19:07:16.503Z,95158.66
2018-11-04T19:09:45.092Z,95158.05
2018-11-04T19:12:13.767Z,95148.52
2018-11-04T19:14:42.384Z,95143.52
2018-11-04T19:17:11.044Z,95140.19
2018-11-04T19:19:39.619Z,95131.61
2018-11-04T19:22:08.280Z,95129.69
2018-11-04T19:24:36.840Z,95129.02
2018-11-04T19:27:06.148Z,95122.56
2018-11-04T19:29:34.579Z,95130.40
2018-11-04T19:32:03.100Z,95120.93
2018-11-04T19:34:31.757Z,95112.30
2018-11-04T19:37:00.315Z,95121.41
2018-11-04T19:39:28.885Z,95121.35
2018-11-04T19:41:57.803Z,95109.08
2018-11-04T19:44:26.773Z,95118.80
2018-11-04T19:46:55.720Z,95120.40
2018-11-04T19:49:24.670Z,95124.09
2018-11-04T19:51:53.327Z,95119.63
2018-11-04T19:54:21.941Z,95110.72
2018-11-04T19:56:54.175Z,95107.86
2018-11-04T19:59:22.643Z,95087.05
2018-11-04T20:01:51.142Z,95105.81
2018-11-04T20:04:19.748Z,95112.45
2018-11-04T20:06:48.475Z,95114.01
2018-11-04T20:09:18.190Z,95116.91
2018-11-04T20:11:47.138Z,95121.83
2018-11-04T20:14:22.190Z,95122.23
2018-11-04T20:16:51.776Z,95135.44
2018-11-04T20:19:26.159Z,95135.91
2018-11-04T20:21:55.532Z,95127.09
2018-11-04T20:24:32.325Z,95136.22
2018-11-04T20:27:00.783Z,95119.36
2018-11-04T20:29:30.042Z,95130.91
2018-11-04T20:32:03.830Z,95117.77
2018-11-04T20:34:32.355Z,95124.52
2018-11-04T20:37:00.838Z,95124.05
2018-11-04T20:39:34.593Z,95119.58
2018-11-04T20:42:03.096Z,95109.19
2018-11-04T20:44:33.712Z,95104.99
2018-11-04T20:47:02.239Z,95095.17
2018-11-04T20:49:36.031Z,95090.95
2018-11-04T20:52:04.567Z,95086.59
2018-11-04T20:54:33.288Z,95097.45
2018-11-04T20:57:06.955Z,95116.11
2018-11-04T20:59:35.483Z,95114.95
2018-11-04T21:02:04.226Z,95118.42
2018-11-04T21:04:32.831Z,95126.44
2018-11-04T21:07:01.321Z,95116.80
2018-11-04T21:09:29.775Z,95099.29
2018-11-04T21:11:58.283Z,95097.92
2018-11-04T21:14:26.759Z,95089.52
2018-11-04T21:16:55.259Z,95084.89
2018-11-04T21:19:23.724Z,95088.17
2018-11-04T21:21:52.244Z,95086.80
2018-11-04T21:24:20.691Z,95088.72
2018-11-04T21:26:49.443Z,95075.45
2018-11-04T21:29:18.051Z,95073.75
2018-11-04T21:31:46.440Z,95063.63
2018-11-04T21:34:14.895Z,95056.60
2018-11-04T21:36:43.512Z,95066.30
2018-11-04T21:39:12.520Z,95071.98
2018-11-04T21:41:41.035Z,95074.66
2018-11-04T21:44:09.584Z,95068.22
2018-11-04T21:46:38.122Z,95074.25
2018-11-04T21:49:06.656Z,95071.36
2018-11-04T21:51:35.120Z,95079.39
2018-11-04T21:54:03.685Z,95072.25
2018-11-04T21:56:32.284Z,95069.23
2018-11-04T21:59:00.784Z,95064.44
2018-11-04T22:01:29.240Z,95059.40
2018-11-04T22:03:57.874Z,95061.02
2018-11-04T22:06:26.215Z,95062.94
2018-11-04T22:08:54.740Z,95046.20
2018-11-04T22:11:23.213Z,95053.86
2018-11-04T22:13:51.817Z,95065.09
2018-11-04T22:16:20.276Z,95063.01
2018-11-04T22:18:48.765Z,95069.72
2018-11-04T22:21:17.266Z,95063.23
2018-11-04T22:23:45.772Z,95062.95
2018-11-04T22:26:14.266Z,95065.45
2018-11-04T22:28:42.795Z,95055.08
2018-11-04T22:31:11.248Z,95052.75
2018-11-04T22:33:39.751Z,95046.05
2018-11-04T22:36:08.172Z,95060.57
2018-11-04T22:38:36.664Z,95059.25
2018-11-04T22:41:05.227Z,95048.16
2018-11-04T22:43:33.698Z,95044.94
2018-11-04T22:46:02.204Z,95065.98
2018-11-04T22:48:30.678Z,95075.28
2018-11-04T22:50:59.134Z,95063.49
2018-11-04T22:53:27.564Z,95052.22
2018-11-04T22:55:56.091Z,95039.13
2018-11-04T22:58:24.532Z,95046.95
2018-11-04T23:00:59.958Z,95039.67
2018-11-04T23:03:28.454Z,95032.78
2018-11-04T23:05:57.274Z,95022.52
2018-11-04T23:08:25.712Z,95025.31
2018-11-04T23:10:54.164Z,95025.03
2018-11-04T23:13:22.612Z,95023.39
2018-11-04T23:15:51.144Z,95015.71
2018-11-04T23:18:20.240Z,95003.00
2018-11-04T23:20:48.930Z,95006.56
2018-11-04T23:23:17.354Z,95003.70
2018-11-04T23:25:45.795Z,95009.86
2018-11-04T23:28:14.208Z,95007.39
2018-11-04T23:30:42.684Z,95001.45
2018-11-04T23:33:11.115Z,94995.09
2018-11-04T23:35:39.542Z,94993.56
2018-11-04T23:38:08.027Z,94992.95
2018-11-04T23:40:36.458Z,94991.92
2018-11-04T23:43:05.063Z,94979.67
2018-11-04T23:45:33.498Z,94980.08
2018-11-04T23:48:02.030Z,94993.36
2018-11-04T23:50:30.456Z,94982.62
2018-11-04T23:52:58.915Z,94975.11
2018-11-04T23:55:27.360Z,94974.43
2018-11-04T23:57:55.884Z,94971.69
